createdAt,value
2022-11-22T00:00:17.289Z,94850.56
2022-11-22T00:02:44.638Z,94852.22
2022-11-22T00:05:11.740Z,94852.22
2022-11-22T00:07:39.351Z,94852.22
2022-11-22T00:10:11.859Z,94844.13
2022-11-22T00:12:39.580Z,94851.25
2022-11-22T00:15:07.700Z,94856.94
2022-11-22T00:17:34.768Z,94846.59
2022-11-22T00:20:01.919Z,94848.28
2022-11-22T00:22:31.391Z,94851.44
2022-11-22T00:24:58.044Z,94841.56
2022-11-22T00:27:25.202Z,94849.03
2022-11-22T00:29:52.467Z,94834.31
2022-11-22T00:32:19.100Z,94831.31
2022-11-22T00:34:45.707Z,94839.28
2022-11-22T00:37:12.356Z,94826.22
2022-11-22T00:39:38.966Z,94836.53
2022-11-22T00:42:05.622Z,94846.84
2022-11-22T00:44:32.234Z,94842.22
2022-11-22T00:46:58.820Z,94854.88
2022-11-22T00:49:25.490Z,94845.03
2022-11-22T00:51:52.107Z,94849.75
2022-11-22T00:54:18.734Z,94854.44
2022-11-22T00:56:45.310Z,94855.59
2022-11-22T00:59:11.889Z,94849.97
2022-11-22T01:01:38.563Z,94851.63
2022-11-22T01:04:05.216Z,94859.75
2022-11-22T01:06:32.154Z,94872.00
2022-11-22T01:08:58.835Z,94864.06
2022-11-22T01:11:25.439Z,94857.97
2022-11-22T01:13:52.024Z,94866.53
2022-11-22T01:16:19.433Z,94857.03
2022-11-22T01:18:46.156Z,94869.16
2022-11-22T01:21:13.157Z,94871.44
2022-11-22T01:23:39.822Z,94873.75
2022-11-22T01:26:08.977Z,94878.41
2022-11-22T01:28:36.723Z,94881.56
2022-11-22T01:31:04.942Z,94890.38
2022-11-22T01:33:31.542Z,94901.41
2022-11-22T01:35:58.628Z,94894.97
2022-11-22T01:38:25.546Z,94888.59
2022-11-22T01:40:53.228Z,94893.69
2022-11-22T01:43:23.780Z,94896.44
2022-11-22T01:45:52.820Z,94890.38
2022-11-22T01:48:29.973Z,94900.41
2022-11-22T01:51:02.646Z,94898.16
2022-11-22T01:53:34.622Z,94908.28
2022-11-22T01:56:04.646Z,94914.47
2022-11-22T01:58:33.985Z,94909.25
2022-11-22T02:01:00.772Z,94924.50
2022-11-22T02:03:29.540Z,94927.34
2022-11-22T02:05:56.519Z,94931.25
2022-11-22T02:08:32.494Z,94927.41
2022-11-22T02:11:01.754Z,94930.63
2022-11-22T02:13:30.602Z,94931.47
2022-11-22T02:15:58.428Z,94924.72
2022-11-22T02:18:25.003Z,94929.44
2022-11-22T02:20:53.007Z,94920.66
2022-11-22T02:23:34.688Z,94920.66
2022-11-22T02:26:02.552Z,94924.22
2022-11-22T02:28:31.516Z,94922.69
2022-11-22T02:30:58.437Z,94917.84
2022-11-22T02:33:25.006Z,94924.72
2022-11-22T02:35:51.855Z,94915.09
2022-11-22T02:38:22.559Z,94915.94
2022-11-22T02:40:54.636Z,94916.06
2022-11-22T02:43:26.769Z,94924.03
2022-11-22T02:45:53.402Z,94930.44
2022-11-22T02:48:20.040Z,94924.84
2022-11-22T02:50:47.198Z,94939.97
2022-11-22T02:53:14.252Z,94943.50
2022-11-22T02:55:41.093Z,94948.97
2022-11-22T02:58:08.104Z,94956.38
2022-11-22T03:00:37.015Z,94959.91
2022-11-22T03:03:03.778Z,94964.72
2022-11-22T03:05:30.411Z,94960.31
2022-11-22T03:07:57.004Z,94959.00
2022-11-22T03:10:23.662Z,94955.66
2022-11-22T03:12:50.256Z,94967.44
2022-11-22T03:15:16.920Z,94961.50
2022-11-22T03:17:43.539Z,94964.09
2022-11-22T03:20:10.280Z,94968.28
2022-11-22T03:22:36.868Z,94973.38
2022-11-22T03:25:03.764Z,94976.94
2022-11-22T03:27:30.371Z,94977.28
2022-11-22T03:29:56.992Z,94980.59
2022-11-22T03:32:23.663Z,94975.38
2022-11-22T03:34:50.238Z,94972.53
2022-11-22T03:37:16.870Z,94970.28
2022-11-22T03:39:43.423Z,94976.13
2022-11-22T03:42:10.041Z,94994.91
2022-11-22T03:44:36.706Z,94984.25
2022-11-22T03:47:03.465Z,94992.19
2022-11-22T03:49:30.376Z,94992.19
2022-11-22T03:51:57.084Z,94993.97
2022-11-22T03:54:23.662Z,94996.69
2022-11-22T03:56:50.322Z,95002.16
2022-11-22T03:59:16.903Z,94996.25
2022-11-22T04:01:43.564Z,95006.19
2022-11-22T04:04:11.053Z,94998.38
2022-11-22T04:06:38.527Z,95001.69
2022-11-22T04:09:05.170Z,94989.97
2022-11-22T04:11:31.891Z,94976.56
2022-11-22T04:14:16.803Z,94974.41
2022-11-22T04:16:43.467Z,94983.66
2022-11-22T04:19:10.340Z,94979.31
2022-11-22T04:21:37.005Z,94973.63
2022-11-22T04:24:25.271Z,94969.78
2022-11-22T04:26:52.511Z,94974.66
2022-11-22T04:29:20.159Z,94973.38
2022-11-22T04:32:06.728Z,94974.91
2022-11-22T04:34:33.897Z,94970.63
2022-11-22T04:37:01.392Z,94966.81
2022-11-22T04:39:28.703Z,94976.44
2022-11-22T04:42:15.492Z,94977.75
2022-11-22T04:44:42.888Z,94983.81
2022-11-22T04:47:10.820Z,94980.38
2022-11-22T04:49:37.447Z,94989.38
2022-11-22T04:52:23.672Z,94992.56
2022-11-22T04:54:50.316Z,94992.81
2022-11-22T04:57:16.944Z,94988.66
2022-11-22T04:59:43.555Z,94992.44
2022-11-22T05:02:10.169Z,94997.53
2022-11-22T05:04:36.780Z,94991.75
2022-11-22T05:07:03.468Z,95002.31
2022-11-22T05:09:30.418Z,95008.94
2022-11-22T05:11:57.238Z,95005.03
2022-11-22T05:14:23.834Z,95011.91
2022-11-22T05:16:50.407Z,95016.50
2022-11-22T05:19:17.004Z,95016.88
2022-11-22T05:21:43.591Z,95010.13
2022-11-22T05:24:10.183Z,95011.44
2022-11-22T05:26:37.678Z,95010.81
2022-11-22T05:29:07.168Z,95001.13
2022-11-22T05:31:36.462Z,94999.69
2022-11-22T05:34:05.125Z,95005.28
2022-11-22T05:36:33.616Z,95007.41
2022-11-22T05:39:00.401Z,95015.47
2022-11-22T05:41:27.100Z,95011.56
2022-11-22T05:43:57.623Z,95007.41
2022-11-22T05:46:29.306Z,95018.41
2022-11-22T05:48:57.594Z,95017.00
2022-11-22T05:51:32.161Z,95029.22
2022-11-22T05:54:00.972Z,95025.31
2022-11-22T05:56:27.554Z,95036.00
2022-11-22T05:58:54.253Z,95027.78
2022-11-22T06:01:25.144Z,95029.81
2022-11-22T06:03:52.638Z,95038.94
2022-11-22T06:06:19.281Z,95037.88
2022-11-22T06:08:48.111Z,95045.94
2022-11-22T06:11:17.357Z,95041.53
2022-11-22T06:13:45.579Z,95054.59
2022-11-22T06:16:12.507Z,95066.69
2022-11-22T06:18:39.442Z,95070.25
2022-11-22T06:21:10.291Z,95080.59
2022-11-22T06:23:36.868Z,95070.16
2022-11-22T06:26:09.295Z,95081.53
2022-11-22T06:28:37.130Z,95082.34
2022-11-22T06:31:05.365Z,95084.59
2022-11-22T06:33:32.268Z,95092.06
2022-11-22T06:36:10.253Z,95096.47
2022-11-22T06:38:38.313Z,95094.78
2022-11-22T06:41:07.730Z,95097.63
2022-11-22T06:43:37.356Z,95103.53
2022-11-22T06:46:05.696Z,95106.38
2022-11-22T06:48:34.318Z,95112.31
2022-11-22T06:51:06.444Z,95115.03
2022-11-22T06:53:50.078Z,95115.75
2022-11-22T06:56:18.140Z,95114.94
2022-11-22T06:58:46.394Z,95124.09
2022-11-22T07:01:27.341Z,95125.03
2022-11-22T07:03:58.338Z,95129.19
2022-11-22T07:06:27.783Z,95121.59
2022-11-22T07:08:54.810Z,95118.41
2022-11-22T07:11:24.294Z,95122.06
2022-11-22T07:13:51.645Z,95123.97
2022-11-22T07:16:20.859Z,95137.13
2022-11-22T07:18:48.714Z,95124.91
2022-11-22T07:21:18.832Z,95130.00
2022-11-22T07:23:47.729Z,95123.72
2022-11-22T07:26:15.868Z,95135.84
2022-11-22T07:28:42.740Z,95137.25
2022-11-22T07:31:10.943Z,95129.44
2022-11-22T07:33:37.830Z,95127.06
2022-11-22T07:36:10.053Z,95123.13
2022-11-22T07:38:37.247Z,95129.56
2022-11-22T07:41:04.851Z,95132.38
2022-11-22T07:43:32.969Z,95131.34
2022-11-22T07:46:00.570Z,95133.44
2022-11-22T07:48:27.142Z,95138.78
2022-11-22T07:50:53.768Z,95139.72
2022-11-22T07:53:20.466Z,95127.28
2022-11-22T07:55:47.117Z,95134.84
2022-11-22T07:58:13.812Z,95136.75
2022-11-22T08:00:40.487Z,95136.75
2022-11-22T08:03:08.280Z,95144.13
2022-11-22T08:05:35.052Z,95149.56
2022-11-22T08:08:01.640Z,95152.31
2022-11-22T08:10:28.265Z,95144.34
2022-11-22T08:12:59.166Z,95156.88
2022-11-22T08:15:25.782Z,95155.88
2022-11-22T08:17:52.556Z,95164.06
2022-11-22T08:20:19.154Z,95160.50
2022-11-22T08:22:45.715Z,95165.47
2022-11-22T08:25:15.196Z,95176.53
2022-11-22T08:27:43.362Z,95176.91
2022-11-22T08:30:11.306Z,95184.28
2022-11-22T08:32:38.462Z,95190.84
2022-11-22T08:35:05.703Z,95192.06
2022-11-22T08:37:32.336Z,95202.66
2022-11-22T08:39:59.039Z,95201.72
2022-11-22T08:42:25.639Z,95202.59
2022-11-22T08:44:52.301Z,95213.25
2022-11-22T08:47:18.871Z,95211.13
2022-11-22T08:49:45.460Z,95211.53
2022-11-22T08:52:12.055Z,95206.31
2022-11-22T08:54:38.718Z,95202.50
2022-11-22T08:57:05.477Z,95210.66
2022-11-22T08:59:33.041Z,95220.41
2022-11-22T09:02:00.147Z,95210.69
2022-11-22T09:04:26.883Z,95204.25
2022-11-22T09:09:40.111Z,95194.63
2022-11-22T09:12:07.290Z,95202.00
2022-11-22T09:14:33.918Z,95199.84
2022-11-22T09:17:00.566Z,95202.56
2022-11-22T09:19:27.121Z,95193.53
2022-11-22T09:21:53.707Z,95194.56
2022-11-22T09:24:20.318Z,95190.59
2022-11-22T09:26:46.952Z,95185.16
2022-11-22T09:29:14.289Z,95181.63
2022-11-22T09:31:40.990Z,95172.41
2022-11-22T09:34:07.967Z,95179.69
2022-11-22T09:36:34.793Z,95195.41
2022-11-22T09:39:01.411Z,95199.94
2022-11-22T09:41:43.121Z,95196.63
2022-11-22T09:44:37.361Z,95199.09
2022-11-22T09:47:03.958Z,95196.56
2022-11-22T09:49:44.690Z,95196.88
2022-11-22T09:52:25.317Z,95197.78
2022-11-22T09:54:59.543Z,95190.59
2022-11-22T09:57:37.631Z,95195.56
2022-11-22T10:00:20.322Z,95188.78
2022-11-22T10:03:01.024Z,95182.47
2022-11-22T10:05:39.019Z,95185.69
2022-11-22T10:08:25.098Z,95186.41
2022-11-22T10:10:55.909Z,95191.63
2022-11-22T10:13:31.649Z,95187.78
2022-11-22T10:16:03.356Z,95189.78
2022-11-22T10:18:32.662Z,95175.97
2022-11-22T10:20:59.354Z,95174.56
2022-11-22T10:23:27.535Z,95174.84
2022-11-22T10:26:04.952Z,95173.44
2022-11-22T10:28:31.485Z,95167.13
2022-11-22T10:30:58.023Z,95175.13
2022-11-22T10:34:09.667Z,95173.88
2022-11-22T10:37:01.983Z,95159.09
2022-11-22T10:39:47.901Z,95161.69
2022-11-22T10:42:41.823Z,95146.38
2022-11-22T10:45:31.243Z,95147.66
2022-11-22T10:48:21.142Z,95150.09
2022-11-22T10:51:08.738Z,95148.59
2022-11-22T10:53:48.906Z,95139.72
2022-11-22T10:56:26.994Z,95137.97
2022-11-22T10:59:10.604Z,95132.47
2022-11-22T11:01:42.341Z,95140.50
2022-11-22T11:04:14.024Z,95131.00
2022-11-22T11:07:11.573Z,95126.78
2022-11-22T11:12:53.093Z,95131.94
2022-11-22T11:15:21.935Z,95119.81
2022-11-22T11:17:55.247Z,95124.28
2022-11-22T11:20:43.619Z,95124.84
2022-11-22T11:23:15.089Z,95128.66
2022-11-22T11:25:44.718Z,95130.41
2022-11-22T11:28:23.747Z,95131.28
2022-11-22T11:30:54.375Z,95129.84
2022-11-22T11:33:24.359Z,95143.63
2022-11-22T11:35:55.227Z,95131.63
2022-11-22T11:38:44.725Z,95138.38
2022-11-22T11:41:19.090Z,95141.09
2022-11-22T11:43:46.523Z,95137.56
2022-11-22T11:46:22.021Z,95142.75
2022-11-22T11:48:51.156Z,95132.78
2022-11-22T11:51:37.269Z,95130.09
2022-11-22T11:54:09.952Z,95124.59
2022-11-22T11:56:46.411Z,95126.84
2022-11-22T11:59:38.668Z,95123.88
2022-11-22T12:02:16.283Z,95127.97
2022-11-22T12:04:59.461Z,95126.56
2022-11-22T12:07:28.545Z,95132.59
2022-11-22T12:09:56.238Z,95129.81
2022-11-22T12:12:31.690Z,95127.69
2022-11-22T12:15:21.215Z,95124.28
2022-11-22T12:17:59.363Z,95128.69
2022-11-22T12:20:37.945Z,95126.91
2022-11-22T12:23:23.086Z,95128.63
2022-11-22T12:25:52.283Z,95131.63
2022-11-22T12:28:21.557Z,95126.50
2022-11-22T12:30:54.162Z,95126.06
2022-11-22T12:33:27.507Z,95126.31
2022-11-22T12:35:55.396Z,95124.25
2022-11-22T12:38:27.988Z,95112.84
2022-11-22T12:40:59.253Z,95115.16
2022-11-22T12:43:28.922Z,95124.50
2022-11-22T12:46:01.814Z,95122.66
2022-11-22T12:48:51.841Z,95118.81
2022-11-22T12:51:28.264Z,95124.06
2022-11-22T12:54:00.860Z,95119.28
2022-11-22T12:56:50.197Z,95118.09
2022-11-22T12:59:26.813Z,95126.72
2022-11-22T13:02:22.405Z,95124.53
2022-11-22T13:05:01.846Z,95130.94
2022-11-22T13:07:36.585Z,95121.78
2022-11-22T13:10:14.892Z,95120.09
2022-11-22T13:12:43.019Z,95114.91
2022-11-22T13:15:13.986Z,95110.84
2022-11-22T13:17:40.652Z,95114.78
2022-11-22T13:20:17.132Z,95116.53
2022-11-22T13:23:08.814Z,95110.03
2022-11-22T13:26:11.712Z,95115.19
2022-11-22T13:28:43.502Z,95115.28
2022-11-22T13:31:10.067Z,95116.16
2022-11-22T13:33:39.768Z,95107.75
2022-11-22T13:36:29.414Z,95113.88
2022-11-22T13:39:02.108Z,95117.19
2022-11-22T13:41:40.128Z,95111.16
2022-11-22T13:44:22.053Z,95113.69
2022-11-22T13:47:04.934Z,95121.75
2022-11-22T13:49:39.165Z,95115.50
2022-11-22T13:52:16.659Z,95109.97
2022-11-22T13:54:58.268Z,95112.53
2022-11-22T13:57:27.803Z,95109.72
2022-11-22T14:00:18.701Z,95113.91
2022-11-22T14:02:51.045Z,95104.69
2022-11-22T14:05:26.818Z,95117.72
2022-11-22T14:07:55.959Z,95118.31
2022-11-22T14:10:37.732Z,95114.72
2022-11-22T14:13:09.288Z,95106.66
2022-11-22T14:15:48.246Z,95111.81
2022-11-22T14:18:34.086Z,95102.84
2022-11-22T14:21:01.429Z,95111.06
2022-11-22T14:23:43.287Z,95113.25
2022-11-22T14:26:20.367Z,95114.97
2022-11-22T14:29:17.711Z,95107.31
2022-11-22T14:31:55.314Z,95106.44
2022-11-22T14:34:25.031Z,95112.72
2022-11-22T14:37:10.068Z,95105.22
2022-11-22T14:39:45.602Z,95111.13
2022-11-22T14:42:41.101Z,95108.66
2022-11-22T14:45:10.499Z,95113.56
2022-11-22T14:47:40.872Z,95112.31
2022-11-22T14:50:18.705Z,95110.97
2022-11-22T14:52:48.023Z,95103.53
2022-11-22T14:55:18.809Z,95115.06
2022-11-22T14:57:51.770Z,95116.97
2022-11-22T15:00:21.563Z,95114.97
2022-11-22T15:02:54.246Z,95117.47
2022-11-22T15:09:12.132Z,95118.22
2022-11-22T15:09:21.293Z,95118.81
2022-11-22T15:12:11.615Z,95120.84
2022-11-22T15:14:59.419Z,95128.44
2022-11-22T15:57:37.291Z,95181.94
2022-11-22T16:00:10.762Z,95181.72
2022-11-22T16:02:47.296Z,95180.88
2022-11-22T16:06:05.400Z,95190.03
2022-11-22T16:08:01.886Z,95183.16
2022-11-22T16:10:39.163Z,95183.97
2022-11-22T16:13:11.621Z,95184.81
2022-11-22T16:15:38.643Z,95191.81
2022-11-22T16:18:22.368Z,95193.97
2022-11-22T16:21:03.272Z,95200.13
2022-11-22T16:23:37.741Z,95191.69
2022-11-22T16:26:22.247Z,95191.81
2022-11-22T16:28:51.579Z,95190.59
2022-11-22T16:31:24.295Z,95194.66
2022-11-22T16:33:54.012Z,95190.38
2022-11-22T16:36:22.832Z,95197.88
2022-11-22T16:38:50.102Z,95204.66
2022-11-22T16:41:27.026Z,95206.91
2022-11-22T16:44:00.217Z,95207.16
2022-11-22T16:46:26.971Z,95205.13
2022-11-22T16:48:54.988Z,95205.72
2022-11-22T16:51:30.076Z,95208.81
2022-11-22T16:54:00.121Z,95214.31
2022-11-22T16:56:29.224Z,95202.63
2022-11-22T16:58:57.437Z,95198.97
2022-11-22T17:01:27.228Z,95205.34
2022-11-22T17:03:56.479Z,95203.81
2022-11-22T17:06:25.352Z,95203.81
2022-11-22T17:08:54.576Z,95213.81
2022-11-22T17:11:23.861Z,95205.63
2022-11-22T17:13:50.657Z,95222.28
2022-11-22T17:16:20.609Z,95216.66
2022-11-22T17:18:48.414Z,95225.59
2022-11-22T17:21:25.571Z,95221.94
2022-11-22T17:23:55.085Z,95227.16
2022-11-22T17:26:21.752Z,95227.63
2022-11-22T17:28:48.508Z,95227.03
2022-11-22T17:31:17.363Z,95232.97
2022-11-22T17:33:44.057Z,95244.47
2022-11-22T17:36:22.088Z,95245.44
2022-11-22T17:38:48.725Z,95246.03
2022-11-22T17:41:15.392Z,95244.97
2022-11-22T17:43:42.002Z,95256.81
2022-11-22T17:46:08.572Z,95260.38
2022-11-22T17:48:35.178Z,95258.25
2022-11-22T17:51:10.143Z,95261.56
2022-11-22T17:53:37.049Z,95260.41
2022-11-22T17:56:11.753Z,95273.47
2022-11-22T17:58:39.831Z,95272.13
2022-11-22T18:01:12.239Z,95281.63
2022-11-22T18:03:40.122Z,95283.19
2022-11-22T18:06:09.670Z,95282.38
2022-11-22T18:08:36.365Z,95280.59
2022-11-22T18:11:04.184Z,95288.53
2022-11-22T18:13:33.390Z,95290.78
2022-11-22T18:16:03.664Z,95288.19
2022-11-22T18:21:18.874Z,95294.13
2022-11-22T18:23:45.573Z,95297.56
2022-11-22T18:31:54.297Z,95294.72
2022-11-22T18:34:24.589Z,95299.81
2022-11-22T18:37:07.241Z,95294.25
2022-11-22T18:39:39.049Z,95302.34
2022-11-22T18:42:08.722Z,95303.53
2022-11-22T18:44:35.365Z,95298.41
2022-11-22T18:47:01.964Z,95293.31
2022-11-22T18:49:29.082Z,95293.75
2022-11-22T18:51:56.060Z,95293.31
2022-11-22T18:54:23.178Z,95296.75
2022-11-22T18:56:51.489Z,95299.25
2022-11-22T18:59:18.623Z,95295.56
2022-11-22T19:01:45.294Z,95297.34
2022-11-22T19:04:14.094Z,95305.06
2022-11-22T19:06:41.892Z,95305.78
2022-11-22T19:09:09.375Z,95316.59
2022-11-22T19:11:36.109Z,95314.94
2022-11-22T19:14:02.800Z,95314.59
2022-11-22T19:16:30.355Z,95313.75
2022-11-22T19:18:59.226Z,95321.25
2022-11-22T19:21:27.966Z,95325.66
2022-11-22T19:23:55.642Z,95318.78
2022-11-22T19:26:24.786Z,95327.06
2022-11-22T19:28:55.653Z,95318.38
2022-11-22T19:31:25.178Z,95318.78
2022-11-22T19:33:51.797Z,95325.06
2022-11-22T19:36:21.427Z,95327.81
2022-11-22T19:38:48.673Z,95322.59
2022-11-22T19:41:18.091Z,95324.00
2022-11-22T19:43:45.859Z,95326.38
2022-11-22T19:46:13.215Z,95331.00
2022-11-22T19:48:46.660Z,95327.22
2022-11-22T19:51:15.452Z,95329.81
2022-11-22T19:53:42.829Z,95323.75
2022-11-22T19:56:15.572Z,95326.84
2022-11-22T19:58:43.779Z,95327.44
2022-11-22T20:01:13.014Z,95324.09
2022-11-22T20:03:42.304Z,95328.16
2022-11-22T20:06:11.637Z,95330.50
2022-11-22T20:08:39.225Z,95335.03
2022-11-22T20:11:11.345Z,95340.03
2022-11-22T20:13:40.425Z,95348.69
2022-11-22T20:16:17.501Z,95346.59
2022-11-22T20:18:44.086Z,95342.16
2022-11-22T20:21:12.191Z,95350.03
2022-11-22T20:23:39.606Z,95353.47
2022-11-22T20:26:11.553Z,95353.00
2022-11-22T20:28:39.623Z,95358.72
2022-11-22T20:31:10.993Z,95358.09
2022-11-22T20:33:40.746Z,95358.09
2022-11-22T20:36:10.052Z,95360.47
2022-11-22T20:38:38.659Z,95361.78
2022-11-22T20:41:06.392Z,95354.66
2022-11-22T20:43:34.290Z,95365.25
2022-11-22T20:46:02.290Z,95351.22
2022-11-22T20:48:29.406Z,95358.22
2022-11-22T20:50:56.119Z,95364.16
2022-11-22T20:53:22.722Z,95362.16
2022-11-22T20:55:49.318Z,95358.72
2022-11-22T20:58:16.084Z,95359.19
2022-11-22T21:00:43.395Z,95363.94
2022-11-22T21:03:10.703Z,95365.38
2022-11-22T21:05:37.542Z,95368.69
2022-11-22T21:08:05.415Z,95371.78
2022-11-22T21:10:32.560Z,95373.44
2022-11-22T21:12:59.436Z,95376.66
2022-11-22T21:15:26.038Z,95376.78
2022-11-22T21:18:23.061Z,95377.38
2022-11-22T21:20:41.919Z,95378.22
2022-11-22T21:23:08.497Z,95378.91
2022-11-22T21:25:35.439Z,95380.81
2022-11-22T21:28:02.505Z,95378.22
2022-11-22T21:30:29.123Z,95381.66
2022-11-22T21:32:56.042Z,95386.75
2022-11-22T21:35:22.733Z,95392.56
2022-11-22T21:37:49.298Z,95383.91
2022-11-22T21:40:16.229Z,95388.31
2022-11-22T21:42:44.624Z,95385.56
2022-11-22T21:45:11.216Z,95390.78
2022-11-22T21:47:37.773Z,95385.69
2022-11-22T21:50:08.640Z,95384.16
2022-11-22T21:52:38.160Z,95391.16
2022-11-22T21:55:05.175Z,95393.53
2022-11-22T21:57:31.743Z,95387.34
2022-11-22T21:59:58.317Z,95389.13
2022-11-22T22:02:24.924Z,95389.00
2022-11-22T22:04:51.498Z,95391.56
2022-11-22T22:07:44.651Z,95389.28
2022-11-22T22:10:05.423Z,95381.78
2022-11-22T22:12:32.205Z,95386.06
2022-11-22T22:14:58.805Z,95387.88
2022-11-22T22:17:25.463Z,95392.25
2022-11-22T22:19:52.442Z,95396.66
2022-11-22T22:22:19.042Z,95392.94
2022-11-22T22:24:45.897Z,95392.94
2022-11-22T22:27:12.574Z,95395.13
2022-11-22T22:29:39.154Z,95396.31
2022-11-22T22:32:10.340Z,95387.97
2022-11-22T22:34:37.343Z,95388.22
2022-11-22T22:37:03.900Z,95392.50
2022-11-22T22:39:30.939Z,95393.94
2022-11-22T22:41:57.725Z,95393.94
2022-11-22T22:44:24.379Z,95393.09
2022-11-22T22:46:50.919Z,95391.88
2022-11-22T22:49:17.613Z,95398.69
2022-11-22T22:51:44.253Z,95397.72
2022-11-22T22:54:10.944Z,95398.31
2022-11-22T22:56:37.495Z,95400.59
2022-11-22T22:59:05.234Z,95419.47
2022-11-22T23:01:31.971Z,95409.84
2022-11-22T23:04:00.734Z,95419.34
2022-11-22T23:06:33.350Z,95417.34
2022-11-22T23:09:00.103Z,95410.44
2022-11-22T23:11:47.836Z,95413.66
2022-11-22T23:14:17.224Z,95424.59
2022-11-22T23:16:43.803Z,95415.78
2022-11-22T23:19:10.947Z,95421.25
2022-11-22T23:21:37.633Z,95421.03
2022-11-22T23:24:04.929Z,95421.84
2022-11-22T23:26:32.039Z,95424.34
2022-11-22T23:28:59.539Z,95419.81
2022-11-22T23:31:27.340Z,95420.78
2022-11-22T23:33:54.794Z,95428.03
2022-11-22T23:36:23.534Z,95419.47
2022-11-22T23:38:50.552Z,95425.41
2022-11-22T23:41:22.238Z,95429.59
2022-11-22T23:43:54.163Z,95427.44
2022-11-22T23:46:22.433Z,95429.84
2022-11-22T23:48:53.937Z,95427.31
2022-11-22T23:51:21.748Z,95425.66
2022-11-22T23:53:48.566Z,95421.97
2022-11-22T23:56:21.531Z,95418.41
2022-11-22T23:58:49.036Z,95419.84
